sensor_id;sensor_type;location;lat;lon;timestamp;temperature;humidity
6110;DHT22;3085;49.444;11.054;2022-10-31T00:01:47;14.90;99.90
6110;DHT22;3085;49.444;11.054;2022-10-31T00:04:14;14.90;99.90
6110;DHT22;3085;49.444;11.054;2022-10-31T00:06:41;14.80;99.90
6110;DHT22;3085;49.444;11.054;2022-10-31T00:09:10;14.90;99.90
6110;DHT22;3085;49.444;11.054;2022-10-31T00:11:37;14.70;99.90
6110;DHT22;3085;49.444;11.054;2022-10-31T00:14:05;14.80;99.90
6110;DHT22;3085;49.444;11.054;2022-10-31T00:16:32;14.70;99.90
6110;DHT22;3085;49.444;11.054;2022-10-31T00:19:00;14.70;99.90
6110;DHT22;3085;49.444;11.054;2022-10-31T00:21:28;14.90;99.90
6110;DHT22;3085;49.444;11.054;2022-10-31T00:23:56;14.70;99.90
6110;DHT22;3085;49.444;11.054;2022-10-31T00:26:23;14.70;99.90
6110;DHT22;3085;49.444;11.054;2022-10-31T00:28:50;14.70;99.90
6110;DHT22;3085;49.444;11.054;2022-10-31T00:31:18;14.70;99.90
6110;DHT22;3085;49.444;11.054;2022-10-31T00:33:45;15.60;99.90
6110;DHT22;3085;49.444;11.054;2022-10-31T00:36:13;14.60;99.90
6110;DHT22;3085;49.444;11.054;2022-10-31T00:38:41;14.60;99.90
6110;DHT22;3085;49.444;11.054;2022-10-31T00:41:08;14.50;99.90
6110;DHT22;3085;49.444;11.054;2022-10-31T00:43:35;14.50;99.90
6110;DHT22;3085;49.444;11.054;2022-10-31T00:46:02;14.50;99.90
6110;DHT22;3085;49.444;11.054;2022-10-31T00:48:30;14.50;99.90
6110;DHT22;3085;49.444;11.054;2022-10-31T00:50:57;14.50;99.90
6110;DHT22;3085;49.444;11.054;2022-10-31T00:53:24;14.60;99.90
6110;DHT22;3085;49.444;11.054;2022-10-31T00:55:51;14.50;99.90
6110;DHT22;3085;49.444;11.054;2022-10-31T00:58:18;14.40;99.90
6110;DHT22;3085;49.444;11.054;2022-10-31T01:00:47;14.40;99.90
6110;DHT22;3085;49.444;11.054;2022-10-31T01:03:20;14.40;99.90
6110;DHT22;3085;49.444;11.054;2022-10-31T01:05:57;14.40;99.90
6110;DHT22;3085;49.444;11.054;2022-10-31T01:08:24;14.40;99.90
6110;DHT22;3085;49.444;11.054;2022-10-31T01:11:02;15.20;99.90
6110;DHT22;3085;49.444;11.054;2022-10-31T01:13:29;14.30;99.90
6110;DHT22;3085;49.444;11.054;2022-10-31T01:15:57;14.30;99.90
6110;DHT22;3085;49.444;11.054;2022-10-31T01:18:25;14.30;99.90
6110;DHT22;3085;49.444;11.054;2022-10-31T01:21:01;14.20;99.90
6110;DHT22;3085;49.444;11.054;2022-10-31T01:23:29;14.20;99.90
6110;DHT22;3085;49.444;11.054;2022-10-31T01:26:05;14.20;99.90
6110;DHT22;3085;49.444;11.054;2022-10-31T01:28:33;14.20;99.90
6110;DHT22;3085;49.444;11.054;2022-10-31T01:31:01;14.20;99.90
6110;DHT22;3085;49.444;11.054;2022-10-31T01:33:28;14.10;99.90
6110;DHT22;3085;49.444;11.054;2022-10-31T01:35:55;14.10;99.90
6110;DHT22;3085;49.444;11.054;2022-10-31T01:38:24;13.90;99.90
6110;DHT22;3085;49.444;11.054;2022-10-31T01:40:51;13.80;99.90
6110;DHT22;3085;49.444;11.054;2022-10-31T01:43:18;14.00;99.90
6110;DHT22;3085;49.444;11.054;2022-10-31T01:45:50;14.40;99.90
6110;DHT22;3085;49.444;11.054;2022-10-31T01:48:20;13.90;99.90
6110;DHT22;3085;49.444;11.054;2022-10-31T01:50:48;13.90;99.90
6110;DHT22;3085;49.444;11.054;2022-10-31T01:53:17;13.90;99.90
6110;DHT22;3085;49.444;11.054;2022-10-31T01:55:46;13.90;99.90
6110;DHT22;3085;49.444;11.054;2022-10-31T01:58:15;13.90;99.90
6110;DHT22;3085;49.444;11.054;2022-10-31T02:00:46;13.90;99.90
6110;DHT22;3085;49.444;11.054;2022-10-31T02:03:16;13.90;99.90
6110;DHT22;3085;49.444;11.054;2022-10-31T02:05:43;13.90;99.90
6110;DHT22;3085;49.444;11.054;2022-10-31T02:08:14;13.90;99.90
6110;DHT22;3085;49.444;11.054;2022-10-31T02:10:43;13.80;99.90
6110;DHT22;3085;49.444;11.054;2022-10-31T02:13:12;13.70;99.90
6110;DHT22;3085;49.444;11.054;2022-10-31T02:15:40;13.70;99.90
6110;DHT22;3085;49.444;11.054;2022-10-31T02:18:09;13.70;99.90
6110;DHT22;3085;49.444;11.054;2022-10-31T02:20:43;13.70;99.90
6110;DHT22;3085;49.444;11.054;2022-10-31T02:26:24;13.70;99.90
6110;DHT22;3085;49.444;11.054;2022-10-31T02:32:17;13.60;99.90
6110;DHT22;3085;49.444;11.054;2022-10-31T02:34:52;13.50;99.90
6110;DHT22;3085;49.444;11.054;2022-10-31T02:37:25;13.50;99.90
6110;DHT22;3085;49.444;11.054;2022-10-31T02:40:01;13.50;99.90
6110;DHT22;3085;49.444;11.054;2022-10-31T02:42:35;13.50;99.90
6110;DHT22;3085;49.444;11.054;2022-10-31T02:45:09;13.50;99.90
6110;DHT22;3085;49.444;11.054;2022-10-31T02:47:42;13.40;99.90
6110;DHT22;3085;49.444;11.054;2022-10-31T02:50:12;13.40;99.90
6110;DHT22;3085;49.444;11.054;2022-10-31T02:52:40;13.40;99.90
6110;DHT22;3085;49.444;11.054;2022-10-31T02:55:11;13.40;99.90
6110;DHT22;3085;49.444;11.054;2022-10-31T02:57:39;13.40;99.90
6110;DHT22;3085;49.444;11.054;2022-10-31T03:00:09;13.40;99.90
6110;DHT22;3085;49.444;11.054;2022-10-31T03:02:54;13.40;99.90
6110;DHT22;3085;49.444;11.054;2022-10-31T03:05:35;13.40;99.90
6110;DHT22;3085;49.444;11.054;2022-10-31T03:08:11;13.30;99.90
6110;DHT22;3085;49.444;11.054;2022-10-31T03:10:43;13.30;99.90
6110;DHT22;3085;49.444;11.054;2022-10-31T03:13:19;13.10;99.90
6110;DHT22;3085;49.444;11.054;2022-10-31T03:15:50;13.20;99.90
6110;DHT22;3085;49.444;11.054;2022-10-31T03:18:21;13.20;99.90
6110;DHT22;3085;49.444;11.054;2022-10-31T03:20:55;13.10;99.90
6110;DHT22;3085;49.444;11.054;2022-10-31T03:23:23;13.00;99.90
6110;DHT22;3085;49.444;11.054;2022-10-31T03:25:51;13.00;99.90
6110;DHT22;3085;49.444;11.054;2022-10-31T03:28:24;13.20;99.90
6110;DHT22;3085;49.444;11.054;2022-10-31T03:30:52;13.10;99.90
6110;DHT22;3085;49.444;11.054;2022-10-31T03:36:00;13.10;99.90
6110;DHT22;3085;49.444;11.054;2022-10-31T03:38:29;13.10;99.90
6110;DHT22;3085;49.444;11.054;2022-10-31T03:40:59;13.10;99.90
6110;DHT22;3085;49.444;11.054;2022-10-31T03:43:32;13.20;99.90
6110;DHT22;3085;49.444;11.054;2022-10-31T03:45:59;13.10;99.90
6110;DHT22;3085;49.444;11.054;2022-10-31T03:48:26;13.20;99.90
6110;DHT22;3085;49.444;11.054;2022-10-31T03:51:01;13.10;99.90
6110;DHT22;3085;49.444;11.054;2022-10-31T03:53:33;13.10;99.90
6110;DHT22;3085;49.444;11.054;2022-10-31T03:56:03;13.10;99.90
6110;DHT22;3085;49.444;11.054;2022-10-31T03:58:36;13.10;99.90
6110;DHT22;3085;49.444;11.054;2022-10-31T04:01:06;13.10;99.90
6110;DHT22;3085;49.444;11.054;2022-10-31T04:03:36;13.10;99.90
6110;DHT22;3085;49.444;11.054;2022-10-31T04:06:08;13.10;99.90
6110;DHT22;3085;49.444;11.054;2022-10-31T04:08:39;13.10;99.90
6110;DHT22;3085;49.444;11.054;2022-10-31T04:11:09;13.00;99.90
6110;DHT22;3085;49.444;11.054;2022-10-31T04:13:40;13.10;99.90
6110;DHT22;3085;49.444;11.054;2022-10-31T04:16:09;12.90;99.90
6110;DHT22;3085;49.444;11.054;2022-10-31T04:18:36;13.10;99.90
6110;DHT22;3085;49.444;11.054;2022-10-31T04:21:06;13.10;99.90
6110;DHT22;3085;49.444;11.054;2022-10-31T04:23:34;13.00;99.90
6110;DHT22;3085;49.444;11.054;2022-10-31T04:26:02;13.00;99.90
6110;DHT22;3085;49.444;11.054;2022-10-31T04:28:29;13.00;99.90
6110;DHT22;3085;49.444;11.054;2022-10-31T04:30:56;13.00;99.90
6110;DHT22;3085;49.444;11.054;2022-10-31T04:33:22;12.90;99.90
6110;DHT22;3085;49.444;11.054;2022-10-31T04:35:49;12.90;99.90
6110;DHT22;3085;49.444;11.054;2022-10-31T04:38:18;12.80;99.90
6110;DHT22;3085;49.444;11.054;2022-10-31T04:40:45;12.90;99.90
6110;DHT22;3085;49.444;11.054;2022-10-31T04:43:11;12.80;99.90
6110;DHT22;3085;49.444;11.054;2022-10-31T04:45:38;12.80;99.90
6110;DHT22;3085;49.444;11.054;2022-10-31T04:48:07;13.00;99.90
6110;DHT22;3085;49.444;11.054;2022-10-31T04:50:33;12.80;99.90
6110;DHT22;3085;49.444;11.054;2022-10-31T04:53:00;12.80;99.90
6110;DHT22;3085;49.444;11.054;2022-10-31T04:55:28;12.80;99.90
6110;DHT22;3085;49.444;11.054;2022-10-31T04:57:55;12.80;99.90
6110;DHT22;3085;49.444;11.054;2022-10-31T05:00:23;12.80;99.90
6110;DHT22;3085;49.444;11.054;2022-10-31T05:02:51;12.80;99.90
6110;DHT22;3085;49.444;11.054;2022-10-31T05:05:20;12.80;99.90
6110;DHT22;3085;49.444;11.054;2022-10-31T05:07:48;12.70;99.90
6110;DHT22;3085;49.444;11.054;2022-10-31T05:10:17;12.70;99.90
6110;DHT22;3085;49.444;11.054;2022-10-31T05:12:50;12.70;99.90
6110;DHT22;3085;49.444;11.054;2022-10-31T05:15:19;12.70;99.90
6110;DHT22;3085;49.444;11.054;2022-10-31T05:17:46;12.70;99.90
6110;DHT22;3085;49.444;11.054;2022-10-31T05:20:15;12.70;99.90
6110;DHT22;3085;49.444;11.054;2022-10-31T05:22:43;12.70;99.90
6110;DHT22;3085;49.444;11.054;2022-10-31T05:25:10;12.80;99.90
6110;DHT22;3085;49.444;11.054;2022-10-31T05:27:39;12.70;99.90
6110;DHT22;3085;49.444;11.054;2022-10-31T05:30:08;12.60;99.90
6110;DHT22;3085;49.444;11.054;2022-10-31T05:32:38;12.60;99.90
6110;DHT22;3085;49.444;11.054;2022-10-31T05:35:06;12.60;99.90
6110;DHT22;3085;49.444;11.054;2022-10-31T05:37:34;12.60;99.90
6110;DHT22;3085;49.444;11.054;2022-10-31T05:40:02;12.60;99.90
6110;DHT22;3085;49.444;11.054;2022-10-31T05:42:29;12.60;99.90
6110;DHT22;3085;49.444;11.054;2022-10-31T05:44:56;12.50;99.90
6110;DHT22;3085;49.444;11.054;2022-10-31T05:47:24;12.60;99.90
6110;DHT22;3085;49.444;11.054;2022-10-31T05:49:51;12.60;99.90
6110;DHT22;3085;49.444;11.054;2022-10-31T05:52:18;12.60;99.90
6110;DHT22;3085;49.444;11.054;2022-10-31T05:54:45;12.60;99.90
6110;DHT22;3085;49.444;11.054;2022-10-31T05:57:12;12.60;99.90
6110;DHT22;3085;49.444;11.054;2022-10-31T05:59:39;12.50;99.90
6110;DHT22;3085;49.444;11.054;2022-10-31T06:02:05;12.50;99.90
6110;DHT22;3085;49.444;11.054;2022-10-31T06:04:33;12.50;99.90
6110;DHT22;3085;49.444;11.054;2022-10-31T06:07:00;12.50;99.90
6110;DHT22;3085;49.444;11.054;2022-10-31T06:09:27;12.50;99.90
6110;DHT22;3085;49.444;11.054;2022-10-31T06:11:54;12.60;99.90
6110;DHT22;3085;49.444;11.054;2022-10-31T06:14:21;12.70;99.90
6110;DHT22;3085;49.444;11.054;2022-10-31T06:16:47;12.60;99.90
6110;DHT22;3085;49.444;11.054;2022-10-31T06:19:14;12.60;99.90
6110;DHT22;3085;49.444;11.054;2022-10-31T06:21:43;12.50;99.90
6110;DHT22;3085;49.444;11.054;2022-10-31T06:24:09;12.60;99.90
6110;DHT22;3085;49.444;11.054;2022-10-31T06:26:36;12.60;99.90
6110;DHT22;3085;49.444;11.054;2022-10-31T06:29:03;12.60;99.90
6110;DHT22;3085;49.444;11.054;2022-10-31T06:31:30;12.50;99.90
6110;DHT22;3085;49.444;11.054;2022-10-31T06:33:57;12.50;99.90
6110;DHT22;3085;49.444;11.054;2022-10-31T06:36:24;12.60;99.90
6110;DHT22;3085;49.444;11.054;2022-10-31T06:38:52;12.60;99.90
6110;DHT22;3085;49.444;11.054;2022-10-31T06:41:18;12.50;99.90
6110;DHT22;3085;49.444;11.054;2022-10-31T06:43:46;12.60;99.90
6110;DHT22;3085;49.444;11.054;2022-10-31T06:46:13;12.60;99.90
6110;DHT22;3085;49.444;11.054;2022-10-31T06:48:41;12.60;99.90
6110;DHT22;3085;49.444;11.054;2022-10-31T06:51:08;12.60;99.90
6110;DHT22;3085;49.444;11.054;2022-10-31T06:53:34;12.60;99.90
6110;DHT22;3085;49.444;11.054;2022-10-31T06:56:03;12.60;99.90
6110;DHT22;3085;49.444;11.054;2022-10-31T06:58:30;12.70;99.90
6110;DHT22;3085;49.444;11.054;2022-10-31T07:00:59;12.70;99.90
6110;DHT22;3085;49.444;11.054;2022-10-31T07:03:26;12.70;99.90
6110;DHT22;3085;49.444;11.054;2022-10-31T07:05:54;12.80;99.90
6110;DHT22;3085;49.444;11.054;2022-10-31T07:08:21;12.80;99.90
6110;DHT22;3085;49.444;11.054;2022-10-31T07:10:52;12.80;99.90
6110;DHT22;3085;49.444;11.054;2022-10-31T07:13:23;12.80;99.90
6110;DHT22;3085;49.444;11.054;2022-10-31T07:15:52;12.80;99.90
6110;DHT22;3085;49.444;11.054;2022-10-31T07:18:20;12.80;99.90
6110;DHT22;3085;49.444;11.054;2022-10-31T07:20:47;12.80;99.90
6110;DHT22;3085;49.444;11.054;2022-10-31T07:23:14;12.90;99.90
6110;DHT22;3085;49.444;11.054;2022-10-31T07:25:42;12.80;99.90
6110;DHT22;3085;49.444;11.054;2022-10-31T07:28:08;12.80;99.90
6110;DHT22;3085;49.444;11.054;2022-10-31T07:30:37;12.90;99.90
6110;DHT22;3085;49.444;11.054;2022-10-31T07:33:05;12.90;99.90
6110;DHT22;3085;49.444;11.054;2022-10-31T07:35:32;12.90;99.90
6110;DHT22;3085;49.444;11.054;2022-10-31T07:38:06;12.90;99.90
6110;DHT22;3085;49.444;11.054;2022-10-31T07:40:34;13.00;99.90
6110;DHT22;3085;49.444;11.054;2022-10-31T07:43:03;13.00;99.90
6110;DHT22;3085;49.444;11.054;2022-10-31T07:45:34;13.10;99.90
6110;DHT22;3085;49.444;11.054;2022-10-31T07:48:06;13.10;99.90
6110;DHT22;3085;49.444;11.054;2022-10-31T07:50:33;13.20;99.90
6110;DHT22;3085;49.444;11.054;2022-10-31T07:53:04;13.20;99.90
6110;DHT22;3085;49.444;11.054;2022-10-31T07:55:33;13.20;99.90
6110;DHT22;3085;49.444;11.054;2022-10-31T07:58:03;13.30;99.90
6110;DHT22;3085;49.444;11.054;2022-10-31T08:00:42;13.30;99.90
6110;DHT22;3085;49.444;11.054;2022-10-31T08:03:13;13.40;99.90
6110;DHT22;3085;49.444;11.054;2022-10-31T08:05:40;13.30;99.90
6110;DHT22;3085;49.444;11.054;2022-10-31T08:08:08;13.40;99.90
6110;DHT22;3085;49.444;11.054;2022-10-31T08:10:35;13.50;99.90
6110;DHT22;3085;49.444;11.054;2022-10-31T08:13:04;13.50;99.90
6110;DHT22;3085;49.444;11.054;2022-10-31T08:15:31;13.50;99.90
6110;DHT22;3085;49.444;11.054;2022-10-31T08:17:59;13.50;99.90
6110;DHT22;3085;49.444;11.054;2022-10-31T08:20:29;13.50;99.90
6110;DHT22;3085;49.444;11.054;2022-10-31T08:22:57;13.40;99.90
6110;DHT22;3085;49.444;11.054;2022-10-31T08:25:24;13.50;99.90
6110;DHT22;3085;49.444;11.054;2022-10-31T08:27:52;13.40;99.90
6110;DHT22;3085;49.444;11.054;2022-10-31T08:30:19;13.50;99.90
6110;DHT22;3085;49.444;11.054;2022-10-31T08:32:47;13.60;99.90
6110;DHT22;3085;49.444;11.054;2022-10-31T08:35:14;13.60;99.90
6110;DHT22;3085;49.444;11.054;2022-10-31T08:37:42;13.80;99.90
6110;DHT22;3085;49.444;11.054;2022-10-31T08:40:12;13.80;99.90
6110;DHT22;3085;49.444;11.054;2022-10-31T08:42:39;13.90;99.90
6110;DHT22;3085;49.444;11.054;2022-10-31T08:45:06;13.90;99.90
6110;DHT22;3085;49.444;11.054;2022-10-31T08:47:33;13.90;99.90
6110;DHT22;3085;49.444;11.054;2022-10-31T08:50:00;13.80;99.90
6110;DHT22;3085;49.444;11.054;2022-10-31T08:52:27;13.80;99.90
6110;DHT22;3085;49.444;11.054;2022-10-31T08:54:55;13.90;99.90
6110;DHT22;3085;49.444;11.054;2022-10-31T08:57:22;14.00;99.90
6110;DHT22;3085;49.444;11.054;2022-10-31T08:59:49;14.10;99.90
6110;DHT22;3085;49.444;11.054;2022-10-31T09:02:15;14.10;99.90
6110;DHT22;3085;49.444;11.054;2022-10-31T09:04:42;14.20;99.90
6110;DHT22;3085;49.444;11.054;2022-10-31T09:07:09;14.20;99.90
6110;DHT22;3085;49.444;11.054;2022-10-31T09:09:36;14.30;99.90
6110;DHT22;3085;49.444;11.054;2022-10-31T09:12:05;14.40;99.90
6110;DHT22;3085;49.444;11.054;2022-10-31T09:14:31;14.50;99.90
6110;DHT22;3085;49.444;11.054;2022-10-31T09:16:58;14.70;99.90
6110;DHT22;3085;49.444;11.054;2022-10-31T09:19:25;14.70;99.90
6110;DHT22;3085;49.444;11.054;2022-10-31T09:21:52;14.80;99.90
6110;DHT22;3085;49.444;11.054;2022-10-31T09:24:20;14.80;99.90
6110;DHT22;3085;49.444;11.054;2022-10-31T09:26:47;14.90;99.90
6110;DHT22;3085;49.444;11.054;2022-10-31T09:29:15;15.00;99.90
6110;DHT22;3085;49.444;11.054;2022-10-31T09:31:42;15.00;99.90
6110;DHT22;3085;49.444;11.054;2022-10-31T09:34:08;15.10;99.90
6110;DHT22;3085;49.444;11.054;2022-10-31T09:36:36;15.20;99.90
6110;DHT22;3085;49.444;11.054;2022-10-31T09:39:03;15.20;99.90
6110;DHT22;3085;49.444;11.054;2022-10-31T09:41:42;15.30;99.90
6110;DHT22;3085;49.444;11.054;2022-10-31T09:44:18;15.40;99.90
6110;DHT22;3085;49.444;11.054;2022-10-31T09:46:54;15.50;99.90
6110;DHT22;3085;49.444;11.054;2022-10-31T09:49:37;15.60;99.90
6110;DHT22;3085;49.444;11.054;2022-10-31T09:52:12;15.70;99.90
6110;DHT22;3085;49.444;11.054;2022-10-31T09:54:43;15.90;99.90
6110;DHT22;3085;49.444;11.054;2022-10-31T09:57:14;16.10;99.90
6110;DHT22;3085;49.444;11.054;2022-10-31T09:59:44;16.00;99.90
6110;DHT22;3085;49.444;11.054;2022-10-31T10:02:16;16.10;99.90
6110;DHT22;3085;49.444;11.054;2022-10-31T10:04:48;16.30;99.90
6110;DHT22;3085;49.444;11.054;2022-10-31T10:07:22;16.20;99.90
6110;DHT22;3085;49.444;11.054;2022-10-31T10:09:51;16.30;99.90
6110;DHT22;3085;49.444;11.054;2022-10-31T10:12:28;16.40;99.90
6110;DHT22;3085;49.444;11.054;2022-10-31T10:15:16;16.50;99.90
6110;DHT22;3085;49.444;11.054;2022-10-31T10:17:51;16.60;99.90
6110;DHT22;3085;49.444;11.054;2022-10-31T10:20:31;16.60;99.90
6110;DHT22;3085;49.444;11.054;2022-10-31T10:23:17;16.70;99.90
6110;DHT22;3085;49.444;11.054;2022-10-31T10:25:49;16.70;99.90
6110;DHT22;3085;49.444;11.054;2022-10-31T10:28:22;16.70;99.90
6110;DHT22;3085;49.444;11.054;2022-10-31T10:30:56;16.80;99.90
6110;DHT22;3085;49.444;11.054;2022-10-31T10:33:27;16.90;99.90
6110;DHT22;3085;49.444;11.054;2022-10-31T10:35:59;17.00;99.90
6110;DHT22;3085;49.444;11.054;2022-10-31T10:38:29;17.10;99.90
6110;DHT22;3085;49.444;11.054;2022-10-31T10:40:57;17.10;99.90
6110;DHT22;3085;49.444;11.054;2022-10-31T10:43:31;17.20;99.90
6110;DHT22;3085;49.444;11.054;2022-10-31T10:46:12;17.30;99.90
6110;DHT22;3085;49.444;11.054;2022-10-31T10:49:03;17.30;99.90
6110;DHT22;3085;49.444;11.054;2022-10-31T10:51:37;17.30;99.90
6110;DHT22;3085;49.444;11.054;2022-10-31T10:54:31;17.40;99.90
6110;DHT22;3085;49.444;11.054;2022-10-31T10:57:08;17.40;99.90
6110;DHT22;3085;49.444;11.054;2022-10-31T10:59:38;17.50;99.90
6110;DHT22;3085;49.444;11.054;2022-10-31T11:02:16;17.40;99.90
6110;DHT22;3085;49.444;11.054;2022-10-31T11:04:45;17.40;99.90
6110;DHT22;3085;49.444;11.054;2022-10-31T11:07:14;17.40;99.90
6110;DHT22;3085;49.444;11.054;2022-10-31T11:09:41;17.40;99.90
6110;DHT22;3085;49.444;11.054;2022-10-31T11:12:09;17.40;99.90
6110;DHT22;3085;49.444;11.054;2022-10-31T11:14:44;17.50;99.90
6110;DHT22;3085;49.444;11.054;2022-10-31T11:17:25;17.50;99.90
6110;DHT22;3085;49.444;11.054;2022-10-31T11:20:05;17.50;99.90
6110;DHT22;3085;49.444;11.054;2022-10-31T11:22:32;17.60;99.90
6110;DHT22;3085;49.444;11.054;2022-10-31T11:24:59;17.50;99.90
6110;DHT22;3085;49.444;11.054;2022-10-31T11:27:26;17.60;99.90
6110;DHT22;3085;49.444;11.054;2022-10-31T11:30:05;17.70;99.90
6110;DHT22;3085;49.444;11.054;2022-10-31T11:32:34;17.70;99.90
6110;DHT22;3085;49.444;11.054;2022-10-31T11:35:08;17.70;99.90
6110;DHT22;3085;49.444;11.054;2022-10-31T11:37:41;17.70;99.90
6110;DHT22;3085;49.444;11.054;2022-10-31T11:40:16;17.80;99.90
6110;DHT22;3085;49.444;11.054;2022-10-31T11:42:44;17.80;99.90
6110;DHT22;3085;49.444;11.054;2022-10-31T11:45:16;17.90;99.90
6110;DHT22;3085;49.444;11.054;2022-10-31T11:47:47;18.00;99.90
6110;DHT22;3085;49.444;11.054;2022-10-31T11:50:20;17.90;99.90
6110;DHT22;3085;49.444;11.054;2022-10-31T11:52:47;18.00;99.90
6110;DHT22;3085;49.444;11.054;2022-10-31T11:55:16;18.10;99.90
6110;DHT22;3085;49.444;11.054;2022-10-31T11:57:45;18.10;99.90
6110;DHT22;3085;49.444;11.054;2022-10-31T12:00:21;18.20;99.90
6110;DHT22;3085;49.444;11.054;2022-10-31T12:02:50;18.20;99.90
6110;DHT22;3085;49.444;11.054;2022-10-31T12:05:19;18.20;99.90
6110;DHT22;3085;49.444;11.054;2022-10-31T12:07:46;18.20;99.90
6110;DHT22;3085;49.444;11.054;2022-10-31T12:10:14;18.30;99.90
6110;DHT22;3085;49.444;11.054;2022-10-31T12:12:55;18.30;99.90
6110;DHT22;3085;49.444;11.054;2022-10-31T12:15:34;18.40;99.90
6110;DHT22;3085;49.444;11.054;2022-10-31T12:18:27;18.40;99.90
6110;DHT22;3085;49.444;11.054;2022-10-31T12:21:13;18.50;99.90
6110;DHT22;3085;49.444;11.054;2022-10-31T12:23:52;18.40;99.90
6110;DHT22;3085;49.444;11.054;2022-10-31T12:26:26;18.40;99.90
6110;DHT22;3085;49.444;11.054;2022-10-31T12:29:12;18.50;99.90
6110;DHT22;3085;49.444;11.054;2022-10-31T12:31:52;18.40;99.90
6110;DHT22;3085;49.444;11.054;2022-10-31T12:37:29;18.50;99.90
6110;DHT22;3085;49.444;11.054;2022-10-31T12:40:09;18.60;99.90
6110;DHT22;3085;49.444;11.054;2022-10-31T12:42:49;18.60;99.90
6110;DHT22;3085;49.444;11.054;2022-10-31T12:45:34;18.60;99.90
6110;DHT22;3085;49.444;11.054;2022-10-31T12:51:21;18.60;99.90
6110;DHT22;3085;49.444;11.054;2022-10-31T12:54:12;18.70;99.90
6110;DHT22;3085;49.444;11.054;2022-10-31T12:56:54;18.70;99.90
6110;DHT22;3085;49.444;11.054;2022-10-31T12:59:27;18.70;99.90
6110;DHT22;3085;49.444;11.054;2022-10-31T13:01:59;18.70;99.90
6110;DHT22;3085;49.444;11.054;2022-10-31T13:04:36;18.70;99.90
6110;DHT22;3085;49.444;11.054;2022-10-31T13:07:11;18.70;99.90
6110;DHT22;3085;49.444;11.054;2022-10-31T13:09:46;18.60;99.90
6110;DHT22;3085;49.444;11.054;2022-10-31T13:12:17;18.70;99.90
6110;DHT22;3085;49.444;11.054;2022-10-31T13:14:48;18.70;99.90
6110;DHT22;3085;49.444;11.054;2022-10-31T13:17:21;18.70;99.90
6110;DHT22;3085;49.444;11.054;2022-10-31T13:19:50;18.60;99.90
6110;DHT22;3085;49.444;11.054;2022-10-31T13:22:23;18.60;99.90
6110;DHT22;3085;49.444;11.054;2022-10-31T13:24:55;18.60;99.90
6110;DHT22;3085;49.444;11.054;2022-10-31T13:27:25;18.60;99.90
6110;DHT22;3085;49.444;11.054;2022-10-31T13:30:00;18.60;99.90
6110;DHT22;3085;49.444;11.054;2022-10-31T13:32:37;18.60;99.90
6110;DHT22;3085;49.444;11.054;2022-10-31T13:35:12;18.60;99.90
6110;DHT22;3085;49.444;11.054;2022-10-31T13:37:46;18.70;99.90
6110;DHT22;3085;49.444;11.054;2022-10-31T13:40:22;18.70;99.90
6110;DHT22;3085;49.444;11.054;2022-10-31T13:42:58;18.50;99.90
6110;DHT22;3085;49.444;11.054;2022-10-31T13:45:26;18.70;99.90
6110;DHT22;3085;49.444;11.054;2022-10-31T13:47:58;18.60;99.90
6110;DHT22;3085;49.444;11.054;2022-10-31T13:50:30;18.70;99.90
6110;DHT22;3085;49.444;11.054;2022-10-31T13:53:13;18.70;99.90
6110;DHT22;3085;49.444;11.054;2022-10-31T13:55:42;18.60;99.90
6110;DHT22;3085;49.444;11.054;2022-10-31T13:58:22;18.60;99.90
6110;DHT22;3085;49.444;11.054;2022-10-31T14:01:17;18.70;99.90
6110;DHT22;3085;49.444;11.054;2022-10-31T14:03:56;18.50;99.90
6110;DHT22;3085;49.444;11.054;2022-10-31T14:06:24;18.60;99.90
6110;DHT22;3085;49.444;11.054;2022-10-31T14:09:02;18.70;99.90
6110;DHT22;3085;49.444;11.054;2022-10-31T14:11:30;18.60;99.90
6110;DHT22;3085;49.444;11.054;2022-10-31T14:13:58;18.60;99.90
6110;DHT22;3085;49.444;11.054;2022-10-31T14:16:28;18.60;99.90
6110;DHT22;3085;49.444;11.054;2022-10-31T14:18:59;18.60;99.90
6110;DHT22;3085;49.444;11.054;2022-10-31T14:21:36;18.50;99.90
6110;DHT22;3085;49.444;11.054;2022-10-31T14:24:14;18.40;99.90
6110;DHT22;3085;49.444;11.054;2022-10-31T14:26:53;18.40;99.90
6110;DHT22;3085;49.444;11.054;2022-10-31T14:29:26;18.40;99.90
6110;DHT22;3085;49.444;11.054;2022-10-31T14:32:01;18.40;99.90
6110;DHT22;3085;49.444;11.054;2022-10-31T14:34:30;18.40;99.90
6110;DHT22;3085;49.444;11.054;2022-10-31T14:37:25;18.40;99.90
6110;DHT22;3085;49.444;11.054;2022-10-31T14:43:01;18.30;99.90
6110;DHT22;3085;49.444;11.054;2022-10-31T14:45:40;18.30;99.90
6110;DHT22;3085;49.444;11.054;2022-10-31T14:51:12;18.30;99.90
6110;DHT22;3085;49.444;11.054;2022-10-31T14:53:48;18.20;99.90
6110;DHT22;3085;49.444;11.054;2022-10-31T14:56:24;18.20;99.90
6110;DHT22;3085;49.444;11.054;2022-10-31T14:58:57;18.10;99.90
6110;DHT22;3085;49.444;11.054;2022-10-31T15:01:30;18.10;99.90
6110;DHT22;3085;49.444;11.054;2022-10-31T15:04:08;18.10;99.90
6110;DHT22;3085;49.444;11.054;2022-10-31T15:06:42;18.10;99.90
6110;DHT22;3085;49.444;11.054;2022-10-31T15:09:37;18.00;99.90
6110;DHT22;3085;49.444;11.054;2022-10-31T15:12:25;18.00;99.90
6110;DHT22;3085;49.444;11.054;2022-10-31T15:14:52;17.60;99.90
6110;DHT22;3085;49.444;11.054;2022-10-31T15:17:21;18.00;99.90
6110;DHT22;3085;49.444;11.054;2022-10-31T15:19:49;18.00;99.90
6110;DHT22;3085;49.444;11.054;2022-10-31T15:22:17;18.00;99.90
6110;DHT22;3085;49.444;11.054;2022-10-31T15:24:45;17.80;99.90
6110;DHT22;3085;49.444;11.054;2022-10-31T15:27:14;17.90;99.90
6110;DHT22;3085;49.444;11.054;2022-10-31T15:29:50;17.90;99.90
6110;DHT22;3085;49.444;11.054;2022-10-31T15:32:20;17.90;99.90
6110;DHT22;3085;49.444;11.054;2022-10-31T15:34:49;17.90;99.90
6110;DHT22;3085;49.444;11.054;2022-10-31T15:37:18;17.90;99.90
6110;DHT22;3085;49.444;11.054;2022-10-31T15:39:46;17.80;99.90
6110;DHT22;3085;49.444;11.054;2022-10-31T15:42:19;17.80;99.90
6110;DHT22;3085;49.444;11.054;2022-10-31T15:44:51;17.80;99.90
6110;DHT22;3085;49.444;11.054;2022-10-31T15:47:31;17.70;99.90
6110;DHT22;3085;49.444;11.054;2022-10-31T15:50:01;17.70;99.90
6110;DHT22;3085;49.444;11.054;2022-10-31T15:52:31;17.70;99.90
6110;DHT22;3085;49.444;11.054;2022-10-31T15:55:02;17.70;99.90
6110;DHT22;3085;49.444;11.054;2022-10-31T15:57:30;17.70;99.90
6110;DHT22;3085;49.444;11.054;2022-10-31T15:59:59;17.60;99.90
6110;DHT22;3085;49.444;11.054;2022-10-31T16:02:27;17.60;99.90
6110;DHT22;3085;49.444;11.054;2022-10-31T16:04:55;17.60;99.90
6110;DHT22;3085;49.444;11.054;2022-10-31T16:07:24;17.50;99.90
6110;DHT22;3085;49.444;11.054;2022-10-31T16:10:03;17.50;99.90
6110;DHT22;3085;49.444;11.054;2022-10-31T16:12:44;17.30;99.90
6110;DHT22;3085;49.444;11.054;2022-10-31T16:15:15;17.40;99.90
6110;DHT22;3085;49.444;11.054;2022-10-31T16:17:45;17.40;99.90
6110;DHT22;3085;49.444;11.054;2022-10-31T16:20:19;17.40;99.90
6110;DHT22;3085;49.444;11.054;2022-10-31T16:22:49;17.40;99.90
6110;DHT22;3085;49.444;11.054;2022-10-31T16:25:28;17.30;99.90
6110;DHT22;3085;49.444;11.054;2022-10-31T16:28:03;17.30;99.90
6110;DHT22;3085;49.444;11.054;2022-10-31T16:30:38;17.30;99.90